sensor_id;sensor_type;location;lat;lon;timestamp;temperature;humidity
5870;DHT22;2961;47.702;9.410;2023-05-10T00:01:01;13.40;99.90
5870;DHT22;2961;47.702;9.410;2023-05-10T00:03:28;13.50;99.90
5870;DHT22;2961;47.702;9.410;2023-05-10T00:05:55;13.40;99.90
5870;DHT22;2961;47.702;9.410;2023-05-10T00:08:21;13.40;99.90
5870;DHT22;2961;47.702;9.410;2023-05-10T00:10:48;13.50;99.90
5870;DHT22;2961;47.702;9.410;2023-05-10T00:13:16;13.40;99.90
5870;DHT22;2961;47.702;9.410;2023-05-10T00:15:43;13.40;99.90
5870;DHT22;2961;47.702;9.410;2023-05-10T00:18:10;13.40;99.90
5870;DHT22;2961;47.702;9.410;2023-05-10T00:20:37;13.30;99.90
5870;DHT22;2961;47.702;9.410;2023-05-10T00:23:04;13.30;99.90
5870;DHT22;2961;47.702;9.410;2023-05-10T00:25:30;13.30;99.90
5870;DHT22;2961;47.702;9.410;2023-05-10T00:27:57;13.20;99.90
5870;DHT22;2961;47.702;9.410;2023-05-10T00:30:28;13.20;99.90
5870;DHT22;2961;47.702;9.410;2023-05-10T00:32:54;13.20;99.90
5870;DHT22;2961;47.702;9.410;2023-05-10T00:35:21;13.20;99.90
5870;DHT22;2961;47.702;9.410;2023-05-10T00:37:48;13.20;99.90
5870;DHT22;2961;47.702;9.410;2023-05-10T00:40:15;13.20;99.90
5870;DHT22;2961;47.702;9.410;2023-05-10T00:42:42;13.20;99.90
5870;DHT22;2961;47.702;9.410;2023-05-10T00:45:09;13.10;99.90
5870;DHT22;2961;47.702;9.410;2023-05-10T00:47:38;13.20;99.90
5870;DHT22;2961;47.702;9.410;2023-05-10T00:50:06;13.10;99.90
5870;DHT22;2961;47.702;9.410;2023-05-10T00:52:33;13.00;99.90
5870;DHT22;2961;47.702;9.410;2023-05-10T00:55:00;13.00;99.90
5870;DHT22;2961;47.702;9.410;2023-05-10T00:57:28;13.00;99.90
5870;DHT22;2961;47.702;9.410;2023-05-10T00:59:55;13.00;99.90
5870;DHT22;2961;47.702;9.410;2023-05-10T01:02:23;12.90;99.90
5870;DHT22;2961;47.702;9.410;2023-05-10T01:04:52;12.90;99.90
5870;DHT22;2961;47.702;9.410;2023-05-10T01:07:19;12.90;99.90
5870;DHT22;2961;47.702;9.410;2023-05-10T01:09:46;12.90;99.90
5870;DHT22;2961;47.702;9.410;2023-05-10T01:12:14;12.80;99.90
5870;DHT22;2961;47.702;9.410;2023-05-10T01:14:41;12.80;99.90
5870;DHT22;2961;47.702;9.410;2023-05-10T01:17:08;12.80;99.90
5870;DHT22;2961;47.702;9.410;2023-05-10T01:19:36;12.80;99.90
5870;DHT22;2961;47.702;9.410;2023-05-10T01:22:11;12.70;99.90
5870;DHT22;2961;47.702;9.410;2023-05-10T01:25:11;12.80;99.90
5870;DHT22;2961;47.702;9.410;2023-05-10T01:28:13;12.70;99.90
5870;DHT22;2961;47.702;9.410;2023-05-10T01:31:18;12.70;99.90
5870;DHT22;2961;47.702;9.410;2023-05-10T01:33:54;12.70;99.90
5870;DHT22;2961;47.702;9.410;2023-05-10T01:36:29;12.70;99.90
5870;DHT22;2961;47.702;9.410;2023-05-10T01:39:01;12.70;99.90
5870;DHT22;2961;47.702;9.410;2023-05-10T01:41:40;12.70;99.90
5870;DHT22;2961;47.702;9.410;2023-05-10T01:44:16;12.70;99.90
5870;DHT22;2961;47.702;9.410;2023-05-10T01:46:48;12.70;99.90
5870;DHT22;2961;47.702;9.410;2023-05-10T01:49:23;12.60;99.90
5870;DHT22;2961;47.702;9.410;2023-05-10T01:51:53;12.60;99.90
5870;DHT22;2961;47.702;9.410;2023-05-10T01:54:21;12.60;99.90
5870;DHT22;2961;47.702;9.410;2023-05-10T01:56:55;12.50;99.90
5870;DHT22;2961;47.702;9.410;2023-05-10T01:59:23;12.50;99.90
5870;DHT22;2961;47.702;9.410;2023-05-10T02:01:53;12.50;99.90
5870;DHT22;2961;47.702;9.410;2023-05-10T02:04:22;12.50;99.90
5870;DHT22;2961;47.702;9.410;2023-05-10T02:06:51;12.50;99.90
5870;DHT22;2961;47.702;9.410;2023-05-10T02:09:20;12.60;99.90
5870;DHT22;2961;47.702;9.410;2023-05-10T02:11:48;12.50;99.90
5870;DHT22;2961;47.702;9.410;2023-05-10T02:14:16;12.50;99.90
5870;DHT22;2961;47.702;9.410;2023-05-10T02:16:45;12.50;99.90
5870;DHT22;2961;47.702;9.410;2023-05-10T02:19:13;12.50;99.90
5870;DHT22;2961;47.702;9.410;2023-05-10T02:21:43;12.50;99.90
5870;DHT22;2961;47.702;9.410;2023-05-10T02:24:11;12.50;99.90
5870;DHT22;2961;47.702;9.410;2023-05-10T02:26:38;12.50;99.90
5870;DHT22;2961;47.702;9.410;2023-05-10T02:29:06;12.50;99.90
5870;DHT22;2961;47.702;9.410;2023-05-10T02:31:33;12.50;99.90
5870;DHT22;2961;47.702;9.410;2023-05-10T02:34:01;12.50;99.90
5870;DHT22;2961;47.702;9.410;2023-05-10T02:36:29;12.40;99.90
5870;DHT22;2961;47.702;9.410;2023-05-10T02:38:59;12.40;99.90
5870;DHT22;2961;47.702;9.410;2023-05-10T02:41:27;12.40;99.90
5870;DHT22;2961;47.702;9.410;2023-05-10T02:43:59;12.40;99.90
5870;DHT22;2961;47.702;9.410;2023-05-10T02:46:26;12.40;99.90
5870;DHT22;2961;47.702;9.410;2023-05-10T02:48:53;12.30;99.90
5870;DHT22;2961;47.702;9.410;2023-05-10T02:51:20;12.30;99.90
5870;DHT22;2961;47.702;9.410;2023-05-10T02:53:53;12.30;99.90
5870;DHT22;2961;47.702;9.410;2023-05-10T02:56:25;12.30;99.90
5870;DHT22;2961;47.702;9.410;2023-05-10T02:58:55;12.30;99.90
5870;DHT22;2961;47.702;9.410;2023-05-10T03:01:22;12.30;99.90
5870;DHT22;2961;47.702;9.410;2023-05-10T03:03:48;12.30;99.90
5870;DHT22;2961;47.702;9.410;2023-05-10T03:06:15;12.20;99.90
5870;DHT22;2961;47.702;9.410;2023-05-10T03:08:43;12.20;99.90
5870;DHT22;2961;47.702;9.410;2023-05-10T03:11:28;12.20;99.90
5870;DHT22;2961;47.702;9.410;2023-05-10T03:14:04;12.20;99.90
5870;DHT22;2961;47.702;9.410;2023-05-10T03:16:38;12.30;99.90
5870;DHT22;2961;47.702;9.410;2023-05-10T03:19:13;12.30;99.90
5870;DHT22;2961;47.702;9.410;2023-05-10T03:21:44;12.40;99.90
5870;DHT22;2961;47.702;9.410;2023-05-10T03:24:14;12.40;99.90
5870;DHT22;2961;47.702;9.410;2023-05-10T03:26:43;12.30;99.90
5870;DHT22;2961;47.702;9.410;2023-05-10T03:29:11;12.30;99.90
5870;DHT22;2961;47.702;9.410;2023-05-10T03:31:39;12.30;99.90
5870;DHT22;2961;47.702;9.410;2023-05-10T03:34:06;12.30;99.90
5870;DHT22;2961;47.702;9.410;2023-05-10T03:36:33;12.30;99.90
5870;DHT22;2961;47.702;9.410;2023-05-10T03:39:00;12.30;99.90
5870;DHT22;2961;47.702;9.410;2023-05-10T03:41:26;12.30;99.90
5870;DHT22;2961;47.702;9.410;2023-05-10T03:43:55;12.30;99.90
5870;DHT22;2961;47.702;9.410;2023-05-10T03:46:22;12.30;99.90
5870;DHT22;2961;47.702;9.410;2023-05-10T03:48:48;12.40;99.90
5870;DHT22;2961;47.702;9.410;2023-05-10T03:51:15;12.40;99.90
5870;DHT22;2961;47.702;9.410;2023-05-10T03:53:42;12.30;99.90
5870;DHT22;2961;47.702;9.410;2023-05-10T03:56:09;12.30;99.90
5870;DHT22;2961;47.702;9.410;2023-05-10T03:58:35;12.20;99.90
5870;DHT22;2961;47.702;9.410;2023-05-10T04:01:03;12.20;99.90
5870;DHT22;2961;47.702;9.410;2023-05-10T04:03:30;12.20;99.90
5870;DHT22;2961;47.702;9.410;2023-05-10T04:06:00;12.30;99.90
5870;DHT22;2961;47.702;9.410;2023-05-10T04:08:27;12.30;99.90
5870;DHT22;2961;47.702;9.410;2023-05-10T04:10:54;12.20;99.90
5870;DHT22;2961;47.702;9.410;2023-05-10T04:13:21;12.20;99.90
5870;DHT22;2961;47.702;9.410;2023-05-10T04:15:48;12.20;99.90
5870;DHT22;2961;47.702;9.410;2023-05-10T04:18:16;12.20;99.90
5870;DHT22;2961;47.702;9.410;2023-05-10T04:20:43;12.30;99.90
5870;DHT22;2961;47.702;9.410;2023-05-10T04:23:09;12.30;99.90
5870;DHT22;2961;47.702;9.410;2023-05-10T04:25:36;12.30;99.90
5870;DHT22;2961;47.702;9.410;2023-05-10T04:28:03;12.30;99.90
5870;DHT22;2961;47.702;9.410;2023-05-10T04:30:30;12.30;99.90
5870;DHT22;2961;47.702;9.410;2023-05-10T04:32:57;12.30;99.90
5870;DHT22;2961;47.702;9.410;2023-05-10T04:35:25;12.30;99.90
5870;DHT22;2961;47.702;9.410;2023-05-10T04:37:52;12.30;99.90
5870;DHT22;2961;47.702;9.410;2023-05-10T04:40:19;12.40;99.90
5870;DHT22;2961;47.702;9.410;2023-05-10T04:42:46;12.50;99.90
5870;DHT22;2961;47.702;9.410;2023-05-10T04:45:13;12.50;99.90
5870;DHT22;2961;47.702;9.410;2023-05-10T04:47:41;12.60;99.90
5870;DHT22;2961;47.702;9.410;2023-05-10T04:50:08;12.60;99.90
5870;DHT22;2961;47.702;9.410;2023-05-10T04:52:36;12.60;99.90
5870;DHT22;2961;47.702;9.410;2023-05-10T04:55:03;12.70;99.90
5870;DHT22;2961;47.702;9.410;2023-05-10T04:57:30;12.70;99.90
5870;DHT22;2961;47.702;9.410;2023-05-10T04:59:57;12.70;99.90
5870;DHT22;2961;47.702;9.410;2023-05-10T05:02:23;12.70;99.90
5870;DHT22;2961;47.702;9.410;2023-05-10T05:04:50;12.70;99.90
5870;DHT22;2961;47.702;9.410;2023-05-10T05:07:17;12.70;99.90
5870;DHT22;2961;47.702;9.410;2023-05-10T05:09:45;12.90;99.90
5870;DHT22;2961;47.702;9.410;2023-05-10T05:12:12;13.00;99.90
5870;DHT22;2961;47.702;9.410;2023-05-10T05:14:39;13.00;99.90
5870;DHT22;2961;47.702;9.410;2023-05-10T05:17:06;13.00;99.90
5870;DHT22;2961;47.702;9.410;2023-05-10T05:19:33;13.00;99.90
5870;DHT22;2961;47.702;9.410;2023-05-10T05:22:01;13.00;99.90
5870;DHT22;2961;47.702;9.410;2023-05-10T05:24:27;13.10;99.90
5870;DHT22;2961;47.702;9.410;2023-05-10T05:26:55;13.10;99.90
5870;DHT22;2961;47.702;9.410;2023-05-10T05:29:22;13.20;99.90
5870;DHT22;2961;47.702;9.410;2023-05-10T05:31:49;13.30;99.90
5870;DHT22;2961;47.702;9.410;2023-05-10T05:34:16;13.30;99.90
5870;DHT22;2961;47.702;9.410;2023-05-10T05:36:42;13.40;99.90
5870;DHT22;2961;47.702;9.410;2023-05-10T05:39:09;13.30;99.90
5870;DHT22;2961;47.702;9.410;2023-05-10T05:41:36;13.40;99.90
5870;DHT22;2961;47.702;9.410;2023-05-10T05:44:04;13.50;99.90
5870;DHT22;2961;47.702;9.410;2023-05-10T05:46:31;13.50;99.90
5870;DHT22;2961;47.702;9.410;2023-05-10T05:48:58;13.50;99.90
5870;DHT22;2961;47.702;9.410;2023-05-10T05:51:24;13.40;99.90
5870;DHT22;2961;47.702;9.410;2023-05-10T05:53:51;13.40;99.90
5870;DHT22;2961;47.702;9.410;2023-05-10T05:56:18;13.40;99.90
5870;DHT22;2961;47.702;9.410;2023-05-10T05:58:49;13.40;99.90
5870;DHT22;2961;47.702;9.410;2023-05-10T06:01:17;13.40;99.90
5870;DHT22;2961;47.702;9.410;2023-05-10T06:03:44;13.30;99.90
5870;DHT22;2961;47.702;9.410;2023-05-10T06:06:11;13.30;99.90
5870;DHT22;2961;47.702;9.410;2023-05-10T06:08:38;13.30;99.90
5870;DHT22;2961;47.702;9.410;2023-05-10T06:11:05;13.40;99.90
5870;DHT22;2961;47.702;9.410;2023-05-10T06:13:32;13.30;99.90
5870;DHT22;2961;47.702;9.410;2023-05-10T06:16:00;13.30;99.90
5870;DHT22;2961;47.702;9.410;2023-05-10T06:18:29;13.30;99.90
5870;DHT22;2961;47.702;9.410;2023-05-10T06:20:55;13.20;99.90
5870;DHT22;2961;47.702;9.410;2023-05-10T06:23:22;13.20;99.90
5870;DHT22;2961;47.702;9.410;2023-05-10T06:25:51;13.20;99.90
5870;DHT22;2961;47.702;9.410;2023-05-10T06:28:17;13.20;99.90
5870;DHT22;2961;47.702;9.410;2023-05-10T06:30:44;13.20;99.90
5870;DHT22;2961;47.702;9.410;2023-05-10T06:33:11;13.10;99.90
5870;DHT22;2961;47.702;9.410;2023-05-10T06:35:39;13.10;99.90
5870;DHT22;2961;47.702;9.410;2023-05-10T06:38:06;13.10;99.90
5870;DHT22;2961;47.702;9.410;2023-05-10T06:40:33;13.10;99.90
5870;DHT22;2961;47.702;9.410;2023-05-10T06:42:59;13.10;99.90
5870;DHT22;2961;47.702;9.410;2023-05-10T06:45:26;13.10;99.90
5870;DHT22;2961;47.702;9.410;2023-05-10T06:47:53;13.10;99.90
5870;DHT22;2961;47.702;9.410;2023-05-10T06:50:20;13.20;99.90
5870;DHT22;2961;47.702;9.410;2023-05-10T06:52:48;13.20;99.90
5870;DHT22;2961;47.702;9.410;2023-05-10T06:55:15;13.10;99.90
5870;DHT22;2961;47.702;9.410;2023-05-10T06:57:41;13.10;99.90
5870;DHT22;2961;47.702;9.410;2023-05-10T07:00:08;13.10;99.90
5870;DHT22;2961;47.702;9.410;2023-05-10T07:02:36;13.20;99.90
5870;DHT22;2961;47.702;9.410;2023-05-10T07:05:03;13.20;99.90
5870;DHT22;2961;47.702;9.410;2023-05-10T07:07:30;13.20;99.90
5870;DHT22;2961;47.702;9.410;2023-05-10T07:09:58;13.20;99.90
5870;DHT22;2961;47.702;9.410;2023-05-10T07:12:25;13.20;99.90
5870;DHT22;2961;47.702;9.410;2023-05-10T07:14:52;13.40;99.90
5870;DHT22;2961;47.702;9.410;2023-05-10T07:17:18;13.40;99.90
5870;DHT22;2961;47.702;9.410;2023-05-10T07:19:45;13.40;99.90
5870;DHT22;2961;47.702;9.410;2023-05-10T07:22:12;13.40;99.90
5870;DHT22;2961;47.702;9.410;2023-05-10T07:24:39;13.40;99.90
5870;DHT22;2961;47.702;9.410;2023-05-10T07:27:07;13.40;99.90
5870;DHT22;2961;47.702;9.410;2023-05-10T07:29:34;13.60;99.90
5870;DHT22;2961;47.702;9.410;2023-05-10T07:32:01;13.50;99.90
5870;DHT22;2961;47.702;9.410;2023-05-10T07:34:28;13.50;99.90
5870;DHT22;2961;47.702;9.410;2023-05-10T07:36:56;13.60;99.90
5870;DHT22;2961;47.702;9.410;2023-05-10T07:39:23;13.60;99.90
5870;DHT22;2961;47.702;9.410;2023-05-10T07:41:50;13.60;99.90
5870;DHT22;2961;47.702;9.410;2023-05-10T07:44:18;13.80;99.90
5870;DHT22;2961;47.702;9.410;2023-05-10T07:46:46;13.80;99.90
5870;DHT22;2961;47.702;9.410;2023-05-10T07:49:13;13.80;99.90
5870;DHT22;2961;47.702;9.410;2023-05-10T07:51:39;13.80;99.90
5870;DHT22;2961;47.702;9.410;2023-05-10T07:54:06;13.80;99.90
5870;DHT22;2961;47.702;9.410;2023-05-10T07:56:33;13.90;99.90
5870;DHT22;2961;47.702;9.410;2023-05-10T07:59:00;13.90;99.90
5870;DHT22;2961;47.702;9.410;2023-05-10T08:01:31;13.90;99.90
5870;DHT22;2961;47.702;9.410;2023-05-10T08:03:58;14.00;99.90
5870;DHT22;2961;47.702;9.410;2023-05-10T08:06:26;14.10;99.90
5870;DHT22;2961;47.702;9.410;2023-05-10T08:08:55;14.30;99.90
5870;DHT22;2961;47.702;9.410;2023-05-10T08:11:22;14.50;99.90
5870;DHT22;2961;47.702;9.410;2023-05-10T08:13:50;14.50;99.90
5870;DHT22;2961;47.702;9.410;2023-05-10T08:16:17;14.70;99.90
5870;DHT22;2961;47.702;9.410;2023-05-10T08:18:46;14.90;99.90
5870;DHT22;2961;47.702;9.410;2023-05-10T08:21:14;15.00;99.90
5870;DHT22;2961;47.702;9.410;2023-05-10T08:23:41;15.10;99.90
5870;DHT22;2961;47.702;9.410;2023-05-10T08:26:09;15.10;99.90
5870;DHT22;2961;47.702;9.410;2023-05-10T08:28:36;15.10;99.90
5870;DHT22;2961;47.702;9.410;2023-05-10T08:31:02;15.10;99.90
5870;DHT22;2961;47.702;9.410;2023-05-10T08:33:29;15.20;99.90
5870;DHT22;2961;47.702;9.410;2023-05-10T08:35:57;15.20;99.90
5870;DHT22;2961;47.702;9.410;2023-05-10T08:38:24;15.10;99.90
5870;DHT22;2961;47.702;9.410;2023-05-10T08:40:54;15.00;99.90
5870;DHT22;2961;47.702;9.410;2023-05-10T08:43:23;15.00;99.90
5870;DHT22;2961;47.702;9.410;2023-05-10T08:45:53;15.10;99.90
5870;DHT22;2961;47.702;9.410;2023-05-10T08:48:23;15.20;99.90
5870;DHT22;2961;47.702;9.410;2023-05-10T08:50:53;15.40;99.90
5870;DHT22;2961;47.702;9.410;2023-05-10T08:53:23;15.50;99.90
5870;DHT22;2961;47.702;9.410;2023-05-10T08:55:50;15.60;99.90
5870;DHT22;2961;47.702;9.410;2023-05-10T08:58:17;15.60;99.90
5870;DHT22;2961;47.702;9.410;2023-05-10T09:00:48;15.70;99.90
5870;DHT22;2961;47.702;9.410;2023-05-10T09:03:15;15.90;99.90
5870;DHT22;2961;47.702;9.410;2023-05-10T09:05:42;15.90;99.90
5870;DHT22;2961;47.702;9.410;2023-05-10T09:08:10;16.00;99.90
5870;DHT22;2961;47.702;9.410;2023-05-10T09:10:40;16.10;99.90
5870;DHT22;2961;47.702;9.410;2023-05-10T09:13:10;16.30;99.90
5870;DHT22;2961;47.702;9.410;2023-05-10T09:15:37;16.50;99.90
5870;DHT22;2961;47.702;9.410;2023-05-10T09:18:04;16.70;99.90
5870;DHT22;2961;47.702;9.410;2023-05-10T09:20:31;16.80;99.90
5870;DHT22;2961;47.702;9.410;2023-05-10T09:22:58;17.00;99.90
5870;DHT22;2961;47.702;9.410;2023-05-10T09:25:25;17.00;99.90
5870;DHT22;2961;47.702;9.410;2023-05-10T09:27:53;16.90;99.90
5870;DHT22;2961;47.702;9.410;2023-05-10T09:30:24;16.80;99.90
5870;DHT22;2961;47.702;9.410;2023-05-10T09:32:52;16.90;99.90
5870;DHT22;2961;47.702;9.410;2023-05-10T09:35:20;16.90;99.90
5870;DHT22;2961;47.702;9.410;2023-05-10T09:37:49;17.00;99.90
5870;DHT22;2961;47.702;9.410;2023-05-10T09:40:17;17.10;99.90
5870;DHT22;2961;47.702;9.410;2023-05-10T09:42:52;17.30;99.90
5870;DHT22;2961;47.702;9.410;2023-05-10T09:45:20;17.40;99.90
5870;DHT22;2961;47.702;9.410;2023-05-10T09:47:47;17.40;99.90
5870;DHT22;2961;47.702;9.410;2023-05-10T09:50:14;17.50;99.90
5870;DHT22;2961;47.702;9.410;2023-05-10T09:52:52;17.60;99.90
5870;DHT22;2961;47.702;9.410;2023-05-10T09:55:20;17.70;99.90
5870;DHT22;2961;47.702;9.410;2023-05-10T09:57:48;17.90;99.90
5870;DHT22;2961;47.702;9.410;2023-05-10T10:00:18;18.00;99.90
5870;DHT22;2961;47.702;9.410;2023-05-10T10:02:47;18.10;99.90
5870;DHT22;2961;47.702;9.410;2023-05-10T10:05:15;18.00;99.90
5870;DHT22;2961;47.702;9.410;2023-05-10T10:07:41;18.00;99.90
5870;DHT22;2961;47.702;9.410;2023-05-10T10:10:09;17.90;99.90
5870;DHT22;2961;47.702;9.410;2023-05-10T10:12:39;17.80;99.90
5870;DHT22;2961;47.702;9.410;2023-05-10T10:15:08;17.50;99.90
5870;DHT22;2961;47.702;9.410;2023-05-10T10:17:37;17.40;99.90
5870;DHT22;2961;47.702;9.410;2023-05-10T10:20:06;17.70;99.90
5870;DHT22;2961;47.702;9.410;2023-05-10T10:22:34;17.70;99.90
5870;DHT22;2961;47.702;9.410;2023-05-10T10:25:00;17.60;99.90
5870;DHT22;2961;47.702;9.410;2023-05-10T10:27:35;17.70;99.90
5870;DHT22;2961;47.702;9.410;2023-05-10T10:30:14;17.50;99.90
5870;DHT22;2961;47.702;9.410;2023-05-10T10:32:58;17.20;99.90
5870;DHT22;2961;47.702;9.410;2023-05-10T10:35:28;17.00;99.90
5870;DHT22;2961;47.702;9.410;2023-05-10T10:37:55;17.00;99.90
5870;DHT22;2961;47.702;9.410;2023-05-10T10:40:23;16.80;99.90
5870;DHT22;2961;47.702;9.410;2023-05-10T10:42:51;16.80;99.90
5870;DHT22;2961;47.702;9.410;2023-05-10T10:45:20;16.70;99.90
5870;DHT22;2961;47.702;9.410;2023-05-10T10:47:49;16.60;99.90
5870;DHT22;2961;47.702;9.410;2023-05-10T10:50:20;16.60;99.90
5870;DHT22;2961;47.702;9.410;2023-05-10T10:52:46;16.80;99.90
5870;DHT22;2961;47.702;9.410;2023-05-10T10:55:16;16.90;99.90
5870;DHT22;2961;47.702;9.410;2023-05-10T10:57:48;17.10;99.90
5870;DHT22;2961;47.702;9.410;2023-05-10T11:00:25;17.30;99.90
5870;DHT22;2961;47.702;9.410;2023-05-10T11:02:56;17.30;99.90
5870;DHT22;2961;47.702;9.410;2023-05-10T11:05:24;17.50;99.90
5870;DHT22;2961;47.702;9.410;2023-05-10T11:07:52;17.60;99.90
5870;DHT22;2961;47.702;9.410;2023-05-10T11:10:19;17.80;99.90
5870;DHT22;2961;47.702;9.410;2023-05-10T11:12:53;18.00;99.90
5870;DHT22;2961;47.702;9.410;2023-05-10T11:15:29;18.10;99.90
5870;DHT22;2961;47.702;9.410;2023-05-10T11:17:58;18.20;99.90
5870;DHT22;2961;47.702;9.410;2023-05-10T11:20:27;18.10;99.90
5870;DHT22;2961;47.702;9.410;2023-05-10T11:23:11;18.10;99.90
5870;DHT22;2961;47.702;9.410;2023-05-10T11:25:41;18.10;99.90
5870;DHT22;2961;47.702;9.410;2023-05-10T11:28:09;18.30;99.90
5870;DHT22;2961;47.702;9.410;2023-05-10T11:30:37;18.40;99.90
5870;DHT22;2961;47.702;9.410;2023-05-10T11:33:06;18.30;99.90
5870;DHT22;2961;47.702;9.410;2023-05-10T11:35:37;18.20;99.90
5870;DHT22;2961;47.702;9.410;2023-05-10T11:38:06;18.30;99.90
5870;DHT22;2961;47.702;9.410;2023-05-10T11:40:33;18.30;99.90
5870;DHT22;2961;47.702;9.410;2023-05-10T11:43:00;18.30;99.90
5870;DHT22;2961;47.702;9.410;2023-05-10T11:45:27;18.40;99.90
5870;DHT22;2961;47.702;9.410;2023-05-10T11:47:54;18.30;99.90
5870;DHT22;2961;47.702;9.410;2023-05-10T11:50:23;18.40;99.90
5870;DHT22;2961;47.702;9.410;2023-05-10T11:52:51;18.70;99.90
5870;DHT22;2961;47.702;9.410;2023-05-10T11:55:18;18.70;99.90
5870;DHT22;2961;47.702;9.410;2023-05-10T11:57:46;18.80;99.90
5870;DHT22;2961;47.702;9.410;2023-05-10T12:00:13;18.50;99.90
5870;DHT22;2961;47.702;9.410;2023-05-10T12:02:40;18.20;99.90
5870;DHT22;2961;47.702;9.410;2023-05-10T12:05:08;18.10;99.90
5870;DHT22;2961;47.702;9.410;2023-05-10T12:07:37;18.10;99.90
5870;DHT22;2961;47.702;9.410;2023-05-10T12:10:08;18.00;99.90
5870;DHT22;2961;47.702;9.410;2023-05-10T12:12:39;17.90;99.90
5870;DHT22;2961;47.702;9.410;2023-05-10T12:15:10;18.10;99.90
5870;DHT22;2961;47.702;9.410;2023-05-10T12:17:38;18.20;99.90
5870;DHT22;2961;47.702;9.410;2023-05-10T12:20:15;18.00;99.90
5870;DHT22;2961;47.702;9.410;2023-05-10T12:22:47;18.00;99.90
5870;DHT22;2961;47.702;9.410;2023-05-10T12:25:13;18.10;99.90
5870;DHT22;2961;47.702;9.410;2023-05-10T12:27:41;18.20;99.90
5870;DHT22;2961;47.702;9.410;2023-05-10T12:30:08;18.10;99.90
5870;DHT22;2961;47.702;9.410;2023-05-10T12:32:39;18.10;99.90
5870;DHT22;2961;47.702;9.410;2023-05-10T12:35:07;18.10;99.90
5870;DHT22;2961;47.702;9.410;2023-05-10T12:37:34;18.20;99.90
5870;DHT22;2961;47.702;9.410;2023-05-10T12:40:08;18.10;99.90
5870;DHT22;2961;47.702;9.410;2023-05-10T12:42:36;18.10;99.90
5870;DHT22;2961;47.702;9.410;2023-05-10T12:45:03;18.30;99.90
5870;DHT22;2961;47.702;9.410;2023-05-10T12:47:30;18.40;99.90
5870;DHT22;2961;47.702;9.410;2023-05-10T12:49:57;18.30;99.90
5870;DHT22;2961;47.702;9.410;2023-05-10T12:52:24;18.30;99.90
5870;DHT22;2961;47.702;9.410;2023-05-10T12:54:51;18.20;99.90
5870;DHT22;2961;47.702;9.410;2023-05-10T12:57:20;18.20;99.90
5870;DHT22;2961;47.702;9.410;2023-05-10T12:59:46;18.20;99.90
5870;DHT22;2961;47.702;9.410;2023-05-10T13:02:13;18.20;99.90
5870;DHT22;2961;47.702;9.410;2023-05-10T13:04:40;18.20;99.90
5870;DHT22;2961;47.702;9.410;2023-05-10T13:07:07;18.20;99.90
5870;DHT22;2961;47.702;9.410;2023-05-10T13:09:35;18.30;99.90
5870;DHT22;2961;47.702;9.410;2023-05-10T13:12:02;18.40;99.90
5870;DHT22;2961;47.702;9.410;2023-05-10T13:14:30;18.30;99.90
5870;DHT22;2961;47.702;9.410;2023-05-10T13:16:57;18.40;99.90
5870;DHT22;2961;47.702;9.410;2023-05-10T13:19:24;18.60;99.90
5870;DHT22;2961;47.702;9.410;2023-05-10T13:21:51;18.70;99.90
5870;DHT22;2961;47.702;9.410;2023-05-10T13:24:17;18.80;99.90
5870;DHT22;2961;47.702;9.410;2023-05-10T13:26:44;18.80;99.90
5870;DHT22;2961;47.702;9.410;2023-05-10T13:29:11;18.70;99.90
5870;DHT22;2961;47.702;9.410;2023-05-10T13:31:39;18.70;99.90
5870;DHT22;2961;47.702;9.410;2023-05-10T13:34:06;18.40;99.90
5870;DHT22;2961;47.702;9.410;2023-05-10T13:36:33;18.00;99.90
5870;DHT22;2961;47.702;9.410;2023-05-10T13:38:59;17.80;99.90
5870;DHT22;2961;47.702;9.410;2023-05-10T13:41:28;17.60;99.90
5870;DHT22;2961;47.702;9.410;2023-05-10T13:43:54;17.50;99.90
5870;DHT22;2961;47.702;9.410;2023-05-10T13:46:21;17.40;99.90
5870;DHT22;2961;47.702;9.410;2023-05-10T13:48:49;17.50;99.90
5870;DHT22;2961;47.702;9.410;2023-05-10T13:51:16;17.50;99.90
5870;DHT22;2961;47.702;9.410;2023-05-10T13:53:43;17.50;99.90
5870;DHT22;2961;47.702;9.410;2023-05-10T13:56:10;17.40;99.90
5870;DHT22;2961;47.702;9.410;2023-05-10T13:58:37;17.30;99.90
5870;DHT22;2961;47.702;9.410;2023-05-10T14:01:03;17.30;99.90
5870;DHT22;2961;47.702;9.410;2023-05-10T14:03:31;17.30;99.90
5870;DHT22;2961;47.702;9.410;2023-05-10T14:05:59;17.30;99.90
5870;DHT22;2961;47.702;9.410;2023-05-10T14:08:26;17.10;99.90
5870;DHT22;2961;47.702;9.410;2023-05-10T14:10:53;17.00;99.90
5870;DHT22;2961;47.702;9.410;2023-05-10T14:13:21;17.00;99.90
5870;DHT22;2961;47.702;9.410;2023-05-10T14:15:48;17.00;99.90
5870;DHT22;2961;47.702;9.410;2023-05-10T14:18:15;17.10;99.90
5870;DHT22;2961;47.702;9.410;2023-05-10T14:20:42;17.10;99.90
5870;DHT22;2961;47.702;9.410;2023-05-10T14:23:10;17.20;99.90
5870;DHT22;2961;47.702;9.410;2023-05-10T14:25:37;17.20;99.90
5870;DHT22;2961;47.702;9.410;2023-05-10T14:28:04;17.20;99.90
5870;DHT22;2961;47.702;9.410;2023-05-10T14:30:31;17.20;99.90
5870;DHT22;2961;47.702;9.410;2023-05-10T14:32:59;17.20;99.90
5870;DHT22;2961;47.702;9.410;2023-05-10T14:35:26;17.20;99.90
5870;DHT22;2961;47.702;9.410;2023-05-10T14:37:53;17.30;99.90
5870;DHT22;2961;47.702;9.410;2023-05-10T14:40:21;17.30;99.90
5870;DHT22;2961;47.702;9.410;2023-05-10T14:42:49;17.30;99.90
5870;DHT22;2961;47.702;9.410;2023-05-10T14:45:16;17.30;99.90
5870;DHT22;2961;47.702;9.410;2023-05-10T14:47:43;17.20;99.90
5870;DHT22;2961;47.702;9.410;2023-05-10T14:50:10;17.10;99.90
5870;DHT22;2961;47.702;9.410;2023-05-10T14:52:37;16.90;99.90
5870;DHT22;2961;47.702;9.410;2023-05-10T14:55:04;16.80;99.90
5870;DHT22;2961;47.702;9.410;2023-05-10T14:57:32;16.80;99.90
5870;DHT22;2961;47.702;9.410;2023-05-10T14:59:59;16.70;99.90
5870;DHT22;2961;47.702;9.410;2023-05-10T15:02:26;16.60;99.90
5870;DHT22;2961;47.702;9.410;2023-05-10T15:04:53;16.50;99.90
5870;DHT22;2961;47.702;9.410;2023-05-10T15:07:19;16.50;99.90
5870;DHT22;2961;47.702;9.410;2023-05-10T15:09:46;16.70;99.90
5870;DHT22;2961;47.702;9.410;2023-05-10T15:12:13;16.80;99.90
5870;DHT22;2961;47.702;9.410;2023-05-10T15:14:41;16.90;99.90
5870;DHT22;2961;47.702;9.410;2023-05-10T15:17:08;16.90;99.90
5870;DHT22;2961;47.702;9.410;2023-05-10T15:19:35;16.80;99.90
5870;DHT22;2961;47.702;9.410;2023-05-10T15:22:04;16.80;99.90
5870;DHT22;2961;47.702;9.410;2023-05-10T15:24:31;16.70;99.90
5870;DHT22;2961;47.702;9.410;2023-05-10T15:26:58;16.70;99.90
5870;DHT22;2961;47.702;9.410;2023-05-10T15:29:25;16.60;99.90
5870;DHT22;2961;47.702;9.410;2023-05-10T15:31:53;16.70;99.90
5870;DHT22;2961;47.702;9.410;2023-05-10T15:34:20;16.60;99.90
5870;DHT22;2961;47.702;9.410;2023-05-10T15:36:47;16.60;99.90
5870;DHT22;2961;47.702;9.410;2023-05-10T15:39:13;16.50;99.90
5870;DHT22;2961;47.702;9.410;2023-05-10T15:41:40;16.50;99.90
5870;DHT22;2961;47.702;9.410;2023-05-10T15:44:07;16.50;99.90
5870;DHT22;2961;47.702;9.410;2023-05-10T15:46:34;16.40;99.90
5870;DHT22;2961;47.702;9.410;2023-05-10T15:49:04;16.30;99.90
5870;DHT22;2961;47.702;9.410;2023-05-10T15:51:32;16.20;99.90
5870;DHT22;2961;47.702;9.410;2023-05-10T15:53:59;16.10;99.90
5870;DHT22;2961;47.702;9.410;2023-05-10T15:56:27;16.00;99.90
5870;DHT22;2961;47.702;9.410;2023-05-10T15:58:54;16.00;99.90
5870;DHT22;2961;47.702;9.410;2023-05-10T16:01:20;16.00;99.90
5870;DHT22;2961;47.702;9.410;2023-05-10T16:03:47;15.90;99.90
5870;DHT22;2961;47.702;9.410;2023-05-10T16:06:15;15.80;99.90
5870;DHT22;2961;47.702;9.410;2023-05-10T16:08:42;15.70;99.90